Time;durP1;ratioP1;P1;durP2;ratioP2;P2;SDS_P1;SDS_P2;PMS_P1;PMS_P2;Temp;Humidity;BMP_temperature;BMP_pressure;BME280_temperature;BME280_humidity;BME280_pressure;Samples;Min_cycle;Max_cycle;Signal;HPM_P1;HPM_P2
2023/06/21 00:00:12;;;;;;;5.73;3.17;;;30.70;57.40;;;;;;5073016;28;20465;-79
2023/06/21 00:02:41;;;;;;;3.17;3.00;;;30.70;57.40;;;;;;5061738;28;20466;-78
2023/06/21 00:05:10;;;;;;;3.30;2.90;;;30.70;57.40;;;;;;5077258;28;20547;-79
2023/06/21 00:07:40;;;;;;;3.73;3.37;;;30.70;57.40;;;;;;5069140;28;20416;-79
2023/06/21 00:10:09;;;;;;;3.13;3.00;;;30.70;57.30;;;;;;5082028;28;20407;-79
2023/06/21 00:12:37;;;;;;;4.40;3.10;;;30.70;57.40;;;;;;5076843;28;20446;-79
2023/06/21 00:15:05;;;;;;;3.87;3.57;;;30.70;57.30;;;;;;5075074;28;20524;-79
2023/06/21 00:17:33;;;;;;;5.00;4.10;;;30.70;57.40;;;;;;5070211;28;20451;-78
2023/06/21 00:20:05;;;;;;;3.53;3.33;;;30.60;57.30;;;;;;5063021;28;20481;-78
2023/06/21 00:22:36;;;;;;;4.40;3.70;;;30.60;57.20;;;;;;5071806;28;20529;-78
2023/06/21 00:25:05;;;;;;;3.50;3.30;;;30.70;57.30;;;;;;5079503;28;20535;-78
2023/06/21 00:27:33;;;;;;;5.20;3.83;;;30.60;57.30;;;;;;5074377;28;20523;-79
2023/06/21 00:30:01;;;;;;;5.33;3.40;;;30.60;57.20;;;;;;5070830;28;20443;-78
2023/06/21 00:32:29;;;;;;;3.70;3.40;;;30.60;57.40;;;;;;5080480;28;20415;-78
2023/06/21 00:34:57;;;;;;;4.23;3.73;;;30.60;57.30;;;;;;5055747;28;20452;-79
2023/06/21 00:37:26;;;;;;;4.10;3.80;;;30.60;57.40;;;;;;5069789;28;20438;-79
2023/06/21 00:39:55;;;;;;;4.27;3.83;;;30.60;57.30;;;;;;5069558;28;20903;-78
2023/06/21 00:42:23;;;;;;;3.97;3.77;;;30.60;57.20;;;;;;5069349;28;20495;-78
2023/06/21 00:44:51;;;;;;;6.20;3.57;;;30.50;57.30;;;;;;5073668;28;20544;-79
2023/06/21 00:47:20;;;;;;;4.90;4.50;;;30.50;57.30;;;;;;5074994;28;20446;-79
2023/06/21 00:49:48;;;;;;;4.03;3.73;;;30.50;57.30;;;;;;5072943;28;20459;-78
2023/06/21 00:52:17;;;;;;;3.83;3.63;;;30.50;57.30;;;;;;5071625;28;20457;-79
2023/06/21 00:54:46;;;;;;;4.77;4.37;;;30.50;57.30;;;;;;5074378;28;20457;-79
2023/06/21 00:57:15;;;;;;;5.30;4.00;;;30.60;57.30;;;;;;5062863;28;20467;-80
2023/06/21 00:59:43;;;;;;;4.50;4.10;;;30.60;57.30;;;;;;5073988;28;20566;-79
2023/06/21 01:02:11;;;;;;;4.10;3.80;;;30.50;57.30;;;;;;5075535;28;20450;-79
2023/06/21 01:04:40;;;;;;;4.70;4.00;;;30.50;57.30;;;;;;5073287;28;20552;-79
2023/06/21 01:07:13;;;;;;;4.70;4.30;;;30.60;57.40;;;;;;5064813;28;20442;-79
2023/06/21 01:09:49;;;;;;;4.23;3.93;;;30.60;57.40;;;;;;5063631;28;20867;-79
2023/06/21 01:12:25;;;;;;;4.67;4.37;;;30.60;57.40;;;;;;5078089;28;20472;-79
2023/06/21 01:14:56;;;;;;;4.67;4.33;;;30.60;57.40;;;;;;5077215;28;20512;-79
2023/06/21 01:17:25;;;;;;;7.00;4.20;;;30.50;57.30;;;;;;5072646;28;20579;-79
2023/06/21 01:19:55;;;;;;;4.93;4.37;;;30.50;57.20;;;;;;5067021;28;20474;-79
2023/06/21 01:22:32;;;;;;;4.57;4.13;;;30.60;57.40;;;;;;5071798;28;20416;-79
2023/06/21 01:25:08;;;;;;;4.90;4.60;;;30.50;57.40;;;;;;5072380;28;20457;-79
2023/06/21 01:27:42;;;;;;;4.87;4.47;;;30.50;57.40;;;;;;5076105;28;20536;-79
2023/06/21 01:30:12;;;;;;;5.00;4.60;;;30.60;57.40;;;;;;5074973;28;20400;-80
2023/06/21 01:32:40;;;;;;;5.37;4.97;;;30.50;57.40;;;;;;5075054;28;20420;-80
2023/06/21 01:35:10;;;;;;;5.17;4.77;;;30.60;57.40;;;;;;5082626;28;20466;-79
2023/06/21 01:37:42;;;;;;;6.03;5.47;;;30.60;57.40;;;;;;5074935;28;20520;-79
2023/06/21 01:40:11;;;;;;;4.87;4.47;;;30.50;57.30;;;;;;5075045;28;20906;-80
2023/06/21 01:42:39;;;;;;;5.87;5.40;;;30.50;57.50;;;;;;5075061;28;20469;-79
2023/06/21 01:45:08;;;;;;;5.03;4.70;;;30.50;57.40;;;;;;5068522;28;20505;-80
2023/06/21 01:47:37;;;;;;;5.40;5.00;;;30.50;57.40;;;;;;5074354;28;20449;-79
2023/06/21 01:50:07;;;;;;;6.23;5.73;;;30.50;57.40;;;;;;5075576;28;20798;-79
2023/06/21 01:52:35;;;;;;;5.97;5.37;;;30.50;57.40;;;;;;5086822;28;20437;-79
2023/06/21 01:55:05;;;;;;;5.73;5.20;;;30.50;57.40;;;;;;5079196;28;20453;-80
2023/06/21 01:57:35;;;;;;;6.53;5.93;;;30.50;57.40;;;;;;5079824;28;20484;-80
2023/06/21 02:00:13;;;;;;;6.27;5.73;;;30.50;57.30;;;;;;5076207;28;20498;-80
2023/06/21 02:02:43;;;;;;;5.83;5.33;;;30.50;57.40;;;;;;5075285;28;20437;-80
2023/06/21 02:05:11;;;;;;;6.90;6.30;;;30.50;57.50;;;;;;5078570;28;20467;-80
2023/06/21 02:07:39;;;;;;;7.90;6.73;;;30.50;57.50;;;;;;5080822;28;20435;-80
2023/06/21 02:10:07;;;;;;;6.60;6.10;;;30.50;57.50;;;;;;5077920;28;20524;-80
2023/06/21 02:12:35;;;;;;;7.53;6.40;;;30.50;57.60;;;;;;5078217;28;20407;-80
2023/06/21 02:15:04;;;;;;;7.27;6.57;;;30.40;57.40;;;;;;5070200;28;20435;-80
2023/06/21 02:17:32;;;;;;;9.27;6.50;;;30.40;57.40;;;;;;5070819;28;20498;-80
2023/06/21 02:20:07;;;;;;;7.43;6.73;;;30.40;57.50;;;;;;5064376;28;20952;-80
2023/06/21 02:22:35;;;;;;;7.57;6.87;;;30.40;57.50;;;;;;5075122;28;20448;-79
2023/06/21 02:25:03;;;;;;;7.90;7.20;;;30.50;57.60;;;;;;5070659;28;20456;-80
2023/06/21 02:27:31;;;;;;;8.10;7.40;;;30.40;57.50;;;;;;5077298;28;20434;-80
2023/06/21 02:29:59;;;;;;;7.13;6.50;;;30.40;57.60;;;;;;5078477;28;20430;-80
2023/06/21 02:32:27;;;;;;;7.50;6.90;;;30.40;57.50;;;;;;5077663;28;20414;-80
2023/06/21 02:34:55;;;;;;;7.67;7.07;;;30.40;57.60;;;;;;5071764;28;20444;-80
2023/06/21 02:37:24;;;;;;;7.30;6.70;;;30.40;57.50;;;;;;5082818;28;20461;-80
2023/06/21 02:39:53;;;;;;;7.80;6.83;;;30.40;57.50;;;;;;5085881;28;20473;-80
2023/06/21 02:42:21;;;;;;;7.37;6.77;;;30.40;57.50;;;;;;5085657;28;20930;-80
2023/06/21 02:44:49;;;;;;;8.13;7.43;;;30.30;57.60;;;;;;5077465;28;20595;-80
2023/06/21 02:47:17;;;;;;;8.60;7.53;;;30.30;57.50;;;;;;5084300;28;20507;-80
2023/06/21 02:49:45;;;;;;;7.63;6.93;;;30.40;57.50;;;;;;5072652;28;20542;-79
2023/06/21 02:52:14;;;;;;;9.30;8.10;;;30.40;57.40;;;;;;5074960;28;20427;-78
2023/06/21 02:54:43;;;;;;;8.07;7.37;;;30.30;57.50;;;;;;5075071;28;20535;-79
2023/06/21 02:57:12;;;;;;;7.50;6.93;;;30.40;57.50;;;;;;5081821;28;20849;-80
2023/06/21 02:59:39;;;;;;;8.07;7.33;;;30.30;57.50;;;;;;5079574;28;20447;-79
2023/06/21 03:02:09;;;;;;;8.80;7.73;;;30.30;57.40;;;;;;5071070;28;20429;-78
2023/06/21 03:04:37;;;;;;;8.00;7.40;;;30.30;57.50;;;;;;5066715;28;20492;-79
2023/06/21 03:07:05;;;;;;;7.97;7.37;;;30.30;57.30;;;;;;5072248;28;20507;-79
2023/06/21 03:09:33;;;;;;;8.07;7.43;;;30.30;57.40;;;;;;5068325;28;20495;-79
2023/06/21 03:12:07;;;;;;;8.70;7.80;;;30.20;57.40;;;;;;5076590;28;20436;-78
2023/06/21 03:14:37;;;;;;;8.40;7.70;;;30.30;57.50;;;;;;5075988;28;20454;-79
2023/06/21 03:17:05;;;;;;;7.93;7.20;;;30.30;57.40;;;;;;5081717;28;20436;-79
2023/06/21 03:19:33;;;;;;;8.73;7.73;;;30.30;57.40;;;;;;5084617;28;20436;-79
2023/06/21 03:22:02;;;;;;;8.20;7.60;;;30.20;57.30;;;;;;5068790;28;20505;-79
2023/06/21 03:24:32;;;;;;;8.10;7.50;;;30.20;57.30;;;;;;5076325;28;20469;-79
2023/06/21 03:27:01;;;;;;;8.07;7.43;;;30.30;57.30;;;;;;5067912;28;20453;-79
2023/06/21 03:29:30;;;;;;;7.93;7.33;;;30.30;57.40;;;;;;5083282;28;20461;-79
2023/06/21 03:31:58;;;;;;;8.63;7.80;;;30.20;57.40;;;;;;5067503;28;20412;-79
2023/06/21 03:34:25;;;;;;;8.07;7.37;;;30.20;57.40;;;;;;5076050;28;20465;-79
2023/06/21 03:36:54;;;;;;;8.83;7.90;;;30.20;57.60;;;;;;5084317;28;20428;-79
2023/06/21 03:39:22;;;;;;;8.47;7.67;;;30.20;57.50;;;;;;5076442;28;20449;-79
2023/06/21 03:41:51;;;;;;;8.00;7.30;;;30.20;57.30;;;;;;5075824;28;20560;-79
2023/06/21 03:44:18;;;;;;;8.77;8.07;;;30.20;57.40;;;;;;5064012;28;20453;-79
2023/06/21 03:46:48;;;;;;;7.70;7.10;;;30.20;57.30;;;;;;5073485;28;20439;-79
2023/06/21 03:49:16;;;;;;;7.73;7.13;;;30.20;57.30;;;;;;5077444;28;20440;-79
2023/06/21 03:51:43;;;;;;;8.67;7.90;;;30.20;57.10;;;;;;5075092;28;20466;-79
2023/06/21 03:54:11;;;;;;;8.43;7.63;;;30.20;57.20;;;;;;5075503;28;20543;-79
2023/06/21 03:56:39;;;;;;;7.57;6.97;;;30.20;57.20;;;;;;5077661;28;20480;-79
2023/06/21 03:59:07;;;;;;;8.77;8.07;;;30.20;57.30;;;;;;5071799;28;20446;-79
2023/06/21 04:01:35;;;;;;;8.00;7.30;;;30.20;57.20;;;;;;5083283;28;20508;-79
2023/06/21 04:04:05;;;;;;;8.33;7.63;;;30.20;57.20;;;;;;5071598;28;20454;-79
2023/06/21 04:06:32;;;;;;;8.33;7.57;;;30.20;57.20;;;;;;5078522;28;20461;-79
2023/06/21 04:09:00;;;;;;;8.00;7.30;;;30.20;57.20;;;;;;5075109;28;20442;-79
2023/06/21 04:11:28;;;;;;;8.93;8.07;;;30.20;57.20;;;;;;5078011;28;20526;-78
2023/06/21 04:13:57;;;;;;;8.73;7.93;;;30.20;57.10;;;;;;5070266;28;20496;-79
2023/06/21 04:16:26;;;;;;;7.80;7.20;;;30.20;57.00;;;;;;5073210;28;20515;-79
2023/06/21 04:18:55;;;;;;;8.73;7.67;;;30.20;57.20;;;;;;5064456;28;20524;-79
2023/06/21 04:21:24;;;;;;;8.47;7.83;;;30.20;57.00;;;;;;5080814;28;20489;-79
2023/06/21 04:23:52;;;;;;;7.50;6.90;;;30.10;57.10;;;;;;5076247;28;20490;-79
2023/06/21 04:26:22;;;;;;;8.57;7.80;;;30.10;56.90;;;;;;5075667;28;20469;-79
2023/06/21 04:28:50;;;;;;;8.03;7.23;;;30.20;57.00;;;;;;5075240;28;20470;-79
2023/06/21 04:31:18;;;;;;;8.37;7.57;;;30.10;57.00;;;;;;5079042;28;20447;-79
2023/06/21 04:33:47;;;;;;;8.37;7.43;;;30.10;57.10;;;;;;5081000;28;20468;-79
2023/06/21 04:36:17;;;;;;;8.50;7.87;;;30.10;56.90;;;;;;5077628;28;20491;-79
2023/06/21 04:38:48;;;;;;;8.13;7.43;;;30.20;57.20;;;;;;5083778;28;20438;-79
2023/06/21 04:41:16;;;;;;;8.60;7.07;;;30.20;56.90;;;;;;5069039;28;20462;-79
2023/06/21 04:43:44;;;;;;;8.10;7.20;;;30.20;57.00;;;;;;5084235;28;20544;-79
2023/06/21 04:46:12;;;;;;;7.90;7.30;;;30.10;56.80;;;;;;5079900;28;20557;-79
2023/06/21 04:48:40;;;;;;;8.13;7.40;;;30.10;56.90;;;;;;5076364;28;20449;-79
2023/06/21 04:51:08;;;;;;;8.23;7.53;;;30.10;56.80;;;;;;5067853;28;20444;-79
2023/06/21 04:53:36;;;;;;;8.20;7.50;;;30.20;56.90;;;;;;5074706;28;20531;-80
2023/06/21 04:56:06;;;;;;;8.53;7.80;;;30.20;56.90;;;;;;5073822;28;20465;-79
2023/06/21 04:58:37;;;;;;;8.00;7.40;;;30.20;56.90;;;;;;5074827;28;20429;-79
2023/06/21 05:01:05;;;;;;;7.70;7.20;;;30.20;56.70;;;;;;5077989;28;20469;-80
2023/06/21 05:03:33;;;;;;;7.47;6.97;;;30.20;56.80;;;;;;5074819;28;20488;-79
2023/06/21 05:06:01;;;;;;;8.60;7.80;;;30.20;56.80;;;;;;5064411;28;20461;-79
2023/06/21 05:08:29;;;;;;;7.80;7.20;;;30.20;56.90;;;;;;5083439;28;20456;-79
2023/06/21 05:10:57;;;;;;;8.00;7.30;;;30.20;56.80;;;;;;5075485;28;20472;-80
2023/06/21 05:13:27;;;;;;;10.70;7.80;;;30.20;56.90;;;;;;5080083;28;20457;-79
2023/06/21 05:15:55;;;;;;;8.70;7.90;;;30.20;56.70;;;;;;5068438;28;20441;-79
2023/06/21 05:18:23;;;;;;;8.53;7.73;;;30.20;56.80;;;;;;5075365;28;20470;-79
2023/06/21 05:20:51;;;;;;;8.60;7.90;;;30.20;56.70;;;;;;5074987;28;20445;-79
2023/06/21 05:23:19;;;;;;;7.80;7.30;;;30.20;56.60;;;;;;5068244;28;20474;-79
2023/06/21 05:25:48;;;;;;;8.37;7.57;;;30.20;56.70;;;;;;5075764;28;20509;-79
2023/06/21 05:28:16;;;;;;;9.33;7.50;;;30.20;56.70;;;;;;5069590;28;20465;-79
2023/06/21 05:30:45;;;;;;;8.30;7.60;;;30.20;56.60;;;;;;5075743;28;20478;-79
2023/06/21 05:33:14;;;;;;;8.60;7.90;;;30.20;56.60;;;;;;5074603;28;20876;-79
2023/06/21 05:35:42;;;;;;;8.80;7.90;;;30.20;56.60;;;;;;5071805;28;20446;-79
2023/06/21 05:38:10;;;;;;;7.80;7.20;;;30.20;56.50;;;;;;5067369;28;20464;-79
2023/06/21 05:40:41;;;;;;;8.37;7.57;;;30.20;56.50;;;;;;5075287;28;20449;-79
2023/06/21 05:43:09;;;;;;;8.70;8.00;;;30.20;56.50;;;;;;5074963;28;20483;-79
2023/06/21 05:45:38;;;;;;;9.00;8.20;;;30.30;56.50;;;;;;5075323;28;20500;-79
2023/06/21 05:48:07;;;;;;;9.63;8.80;;;30.30;56.40;;;;;;5074568;28;20454;-79
2023/06/21 05:50:35;;;;;;;9.67;8.67;;;30.30;56.30;;;;;;5074662;28;20501;-79
2023/06/21 05:53:03;;;;;;;8.73;8.07;;;30.30;56.40;;;;;;5062442;28;20461;-79
2023/06/21 05:55:31;;;;;;;9.23;8.40;;;30.30;56.30;;;;;;5063644;28;20436;-78
2023/06/21 05:57:59;;;;;;;9.20;7.93;;;30.30;56.20;;;;;;5071057;28;20449;-77
2023/06/21 06:00:26;;;;;;;9.30;8.53;;;30.30;56.40;;;;;;5071061;28;20451;-79
2023/06/21 06:02:54;;;;;;;10.10;9.10;;;30.30;56.20;;;;;;5077548;28;20531;-79
2023/06/21 06:05:24;;;;;;;8.83;7.97;;;30.30;56.20;;;;;;5060097;28;20408;-79
2023/06/21 06:07:52;;;;;;;9.17;8.37;;;30.30;56.10;;;;;;5074900;28;20844;-78
2023/06/21 06:10:20;;;;;;;8.97;8.17;;;30.30;56.20;;;;;;5071791;28;20447;-78
2023/06/21 06:12:48;;;;;;;9.10;8.30;;;30.40;56.20;;;;;;5072344;28;20551;-79
2023/06/21 06:15:17;;;;;;;8.93;8.23;;;30.40;56.20;;;;;;5056667;28;20827;-79
2023/06/21 06:17:46;;;;;;;8.97;8.17;;;30.50;56.20;;;;;;5072039;28;20413;-79
2023/06/21 06:20:14;;;;;;;8.50;7.80;;;30.40;56.10;;;;;;5065600;28;20446;-78
2023/06/21 06:22:44;;;;;;;9.30;7.80;;;30.50;56.20;;;;;;5072761;28;20496;-78
2023/06/21 06:25:12;;;;;;;9.77;8.87;;;30.40;56.10;;;;;;5072539;28;20505;-78
2023/06/21 06:27:40;;;;;;;9.37;8.47;;;30.50;56.10;;;;;;5065368;28;20446;-78
2023/06/21 06:30:09;;;;;;;9.83;8.90;;;30.50;55.90;;;;;;5068197;28;20438;-79
2023/06/21 06:32:36;;;;;;;11.13;8.37;;;30.50;56.00;;;;;;5067973;28;20437;-79
2023/06/21 06:35:06;;;;;;;8.43;7.73;;;30.50;55.90;;;;;;5082716;28;20456;-79
2023/06/21 06:37:34;;;;;;;11.93;8.80;;;30.50;56.00;;;;;;5068114;28;20439;-78
2023/06/21 06:40:05;;;;;;;9.47;8.67;;;30.50;55.90;;;;;;5079346;28;20437;-78
2023/06/21 06:42:33;;;;;;;15.20;8.50;;;30.50;55.90;;;;;;5060285;28;20506;-78
2023/06/21 06:45:03;;;;;;;8.97;8.07;;;30.60;55.80;;;;;;5058448;28;20514;-80
2023/06/21 06:47:30;;;;;;;9.67;7.73;;;30.60;55.90;;;;;;5068395;28;20461;-79
2023/06/21 06:49:58;;;;;;;22.70;20.30;;;30.60;55.80;;;;;;5056767;28;20415;-80
2023/06/21 06:52:27;;;;;;;29.97;23.73;;;30.20;56.40;;;;;;5061213;28;20438;-80
2023/06/21 06:54:55;;;;;;;30.63;24.43;;;29.20;58.10;;;;;;5062298;28;20482;-80
2023/06/21 06:57:24;;;;;;;34.17;24.57;;;28.20;61.80;;;;;;5062043;28;20443;-79
2023/06/21 07:00:05;;;;;;;32.47;26.60;;;27.90;64.30;;;;;;5074229;28;20409;-79
2023/06/21 07:02:33;;;;;;;33.53;25.77;;;27.20;65.90;;;;;;5082564;28;20469;-79
2023/06/21 07:05:02;;;;;;;36.33;29.00;;;26.40;69.60;;;;;;5085088;28;20444;-79
2023/06/21 07:07:30;;;;;;;37.80;28.90;;;26.10;73.00;;;;;;5082256;28;20447;-79
2023/06/21 07:10:00;;;;;;;33.20;25.77;;;26.20;74.20;;;;;;5076202;28;20536;-79
2023/06/21 07:12:30;;;;;;;36.70;26.97;;;26.30;74.70;;;;;;5078526;28;20418;-79
2023/06/21 07:14:59;;;;;;;37.00;29.40;;;26.30;75.10;;;;;;5083002;28;20478;-80
2023/06/21 07:17:27;;;;;;;37.00;29.07;;;26.30;74.30;;;;;;5083985;28;20416;-79
2023/06/21 07:19:55;;;;;;;41.10;28.80;;;26.40;75.50;;;;;;5084703;28;20437;-79
2023/06/21 07:22:23;;;;;;;44.00;28.67;;;26.20;74.70;;;;;;5082894;28;20440;-79
2023/06/21 07:24:51;;;;;;;35.30;25.90;;;25.90;77.20;;;;;;5076290;28;20551;-79
2023/06/21 07:27:21;;;;;;;34.07;24.50;;;25.70;80.20;;;;;;5082826;28;20466;-78
2023/06/21 07:29:50;;;;;;;38.20;26.37;;;25.60;80.60;;;;;;5084434;28;20503;-79
2023/06/21 07:32:18;;;;;;;35.60;27.90;;;25.50;79.00;;;;;;5085041;28;20541;-79
2023/06/21 07:34:46;;;;;;;39.73;28.83;;;25.50;83.10;;;;;;5076482;28;20466;-79
2023/06/21 07:37:14;;;;;;;37.40;27.53;;;25.30;81.40;;;;;;5068968;28;20453;-80
2023/06/21 07:39:42;;;;;;;33.37;25.40;;;25.40;83.70;;;;;;5082317;28;20426;-79
2023/06/21 07:42:22;;;;;;;37.60;25.77;;;25.60;83.70;;;;;;5069919;28;20471;-79
2023/06/21 07:44:53;;;;;;;38.03;24.93;;;25.00;84.50;;;;;;5082619;28;20476;-79
2023/06/21 07:47:22;;;;;;;46.60;27.03;;;25.30;88.30;;;;;;5075885;28;20434;-79
2023/06/21 07:49:50;;;;;;;30.20;23.57;;;25.40;85.40;;;;;;5081179;28;20464;-80
2023/06/21 07:52:19;;;;;;;34.20;23.33;;;25.50;84.10;;;;;;5075240;28;20450;-79
2023/06/21 07:54:48;;;;;;;32.00;22.60;;;25.30;83.40;;;;;;5067799;28;20479;-79
2023/06/21 07:57:16;;;;;;;26.17;21.00;;;25.50;83.80;;;;;;5070584;28;20463;-79
2023/06/21 07:59:45;;;;;;;30.33;23.23;;;25.50;80.60;;;;;;5078379;28;20420;-78
2023/06/21 08:02:17;;;;;;;30.50;23.57;;;25.60;82.00;;;;;;5076163;28;20453;-79
2023/06/21 08:04:46;;;;;;;28.67;21.97;;;26.10;82.30;;;;;;5077976;28;20485;-79
2023/06/21 08:07:14;;;;;;;36.97;27.43;;;25.90;79.10;;;;;;5076263;28;20506;-80
2023/06/21 08:09:42;;;;;;;32.40;24.47;;;26.00;79.40;;;;;;5074345;28;20941;-79
2023/06/21 08:12:13;;;;;;;32.60;23.60;;;25.70;82.60;;;;;;5069968;28;20455;-79
2023/06/21 08:14:41;;;;;;;32.87;22.43;;;25.70;83.10;;;;;;5066622;28;20516;-80
2023/06/21 08:17:09;;;;;;;28.37;21.07;;;25.60;82.60;;;;;;5065956;28;20453;-80
2023/06/21 08:19:39;;;;;;;23.60;19.40;;;25.80;80.10;;;;;;5067221;28;20443;-80
2023/06/21 08:22:07;;;;;;;24.47;19.00;;;26.10;80.70;;;;;;5064284;28;20447;-79
2023/06/21 08:24:35;;;;;;;26.40;20.10;;;26.10;83.10;;;;;;5074556;28;20481;-80
2023/06/21 08:27:03;;;;;;;27.27;21.30;;;26.40;77.30;;;;;;5074205;28;20417;-79
2023/06/21 08:29:31;;;;;;;21.13;16.63;;;26.30;76.40;;;;;;5065597;28;20502;-81
2023/06/21 08:31:59;;;;;;;21.63;16.90;;;26.40;78.50;;;;;;5063021;28;20652;-80
2023/06/21 08:34:28;;;;;;;23.67;18.60;;;26.50;75.80;;;;;;5065904;28;20533;-79
2023/06/21 08:36:57;;;;;;;22.40;17.10;;;26.10;76.00;;;;;;5073100;28;20434;-79
2023/06/21 08:39:25;;;;;;;26.20;17.77;;;26.00;74.00;;;;;;5069814;28;20428;-78
2023/06/21 08:41:54;;;;;;;18.23;14.40;;;25.60;75.70;;;;;;5073949;28;20465;-79
2023/06/21 08:44:23;;;;;;;24.57;15.73;;;25.90;77.60;;;;;;5067405;28;20449;-78
2023/06/21 08:46:51;;;;;;;19.43;16.07;;;26.20;73.70;;;;;;5057509;28;20480;-79
2023/06/21 08:49:20;;;;;;;21.60;15.30;;;26.40;73.40;;;;;;5063298;28;20436;-80
2023/06/21 08:51:49;;;;;;;28.50;20.03;;;26.50;72.90;;;;;;5068792;28;20409;-79
2023/06/21 08:54:20;;;;;;;20.93;16.43;;;26.60;73.60;;;;;;5059858;28;20451;-80
2023/06/21 08:56:50;;;;;;;16.83;13.50;;;26.80;72.60;;;;;;5064469;28;20442;-80
2023/06/21 08:59:20;;;;;;;20.43;15.00;;;27.10;72.30;;;;;;5077394;28;20420;-79
2023/06/21 09:01:53;;;;;;;21.77;15.60;;;26.90;70.40;;;;;;5083885;28;20441;-79
2023/06/21 09:04:22;;;;;;;19.20;13.87;;;26.70;69.70;;;;;;5077609;28;20440;-80
2023/06/21 09:06:50;;;;;;;19.47;15.83;;;26.70;70.00;;;;;;5071971;28;20435;-80
2023/06/21 09:09:19;;;;;;;19.60;15.20;;;26.50;68.40;;;;;;5075725;28;20438;-80
2023/06/21 09:11:47;;;;;;;16.43;14.20;;;26.60;68.80;;;;;;5078332;28;20417;-79
2023/06/21 09:14:15;;;;;;;17.10;14.30;;;26.60;69.00;;;;;;5068236;28;20448;-80
2023/06/21 09:16:43;;;;;;;13.50;12.10;;;27.00;68.70;;;;;;5062920;28;20450;-79
2023/06/21 09:19:11;;;;;;;14.13;11.57;;;27.10;68.20;;;;;;5072370;28;20421;-80
2023/06/21 09:21:39;;;;;;;16.93;13.77;;;26.90;66.90;;;;;;5065311;28;20540;-80
2023/06/21 09:24:07;;;;;;;16.67;14.03;;;27.10;65.30;;;;;;5067250;28;20508;-80
2023/06/21 09:26:37;;;;;;;16.50;13.37;;;27.00;65.80;;;;;;5059991;28;20413;-80
2023/06/21 09:29:05;;;;;;;17.10;12.37;;;26.70;64.60;;;;;;5059755;28;20509;-77
2023/06/21 09:31:33;;;;;;;13.90;11.17;;;27.10;66.10;;;;;;5055534;28;20424;-78
2023/06/21 09:34:02;;;;;;;12.43;10.90;;;28.00;64.80;;;;;;5060243;28;20495;-78
2023/06/21 09:36:30;;;;;;;12.83;10.43;;;28.20;62.10;;;;;;5053052;28;20414;-78
2023/06/21 09:39:07;;;;;;;13.47;11.10;;;28.70;60.40;;;;;;5056602;28;20497;-78
2023/06/21 09:41:38;;;;;;;10.43;9.10;;;28.90;58.70;;;;;;5062810;28;20473;-79
2023/06/21 09:44:06;;;;;;;9.30;8.40;;;29.30;58.70;;;;;;5062366;28;20516;-78
2023/06/21 09:46:34;;;;;;;11.93;8.97;;;29.70;57.50;;;;;;5059199;28;20453;-78
2023/06/21 09:49:08;;;;;;;10.13;9.13;;;29.70;56.50;;;;;;5059026;28;20417;-77
2023/06/21 09:51:42;;;;;;;11.03;10.03;;;29.60;56.40;;;;;;5069795;28;20421;-79
2023/06/21 09:54:10;;;;;;;10.43;7.97;;;29.60;55.10;;;;;;5061113;28;20489;-78
2023/06/21 09:56:40;;;;;;;8.30;7.50;;;29.90;55.20;;;;;;5053999;28;20485;-79
2023/06/21 09:59:14;;;;;;;10.80;9.70;;;30.20;54.70;;;;;;5057891;28;20435;-78
2023/06/21 10:01:44;;;;;;;7.83;7.03;;;30.40;54.10;;;;;;5052372;28;20439;-78
2023/06/21 10:04:13;;;;;;;10.90;8.20;;;30.50;54.00;;;;;;5062005;28;21070;-78
2023/06/21 10:06:49;;;;;;;14.50;8.57;;;30.30;53.60;;;;;;5055194;28;20450;-77
2023/06/21 10:09:17;;;;;;;8.90;8.03;;;30.10;53.40;;;;;;5064002;28;20445;-78
2023/06/21 10:11:49;;;;;;;7.07;6.47;;;30.50;54.00;;;;;;5059271;28;20500;-78
2023/06/21 10:14:19;;;;;;;8.90;8.10;;;30.70;52.70;;;;;;5058726;28;20994;-78
2023/06/21 10:16:49;;;;;;;6.93;6.33;;;30.50;51.50;;;;;;5062272;28;20477;-78
2023/06/21 10:19:18;;;;;;;6.83;6.23;;;30.80;51.80;;;;;;5061774;28;20439;-78
2023/06/21 10:21:46;;;;;;;7.20;6.60;;;30.60;51.30;;;;;;5062952;28;20445;-77
2023/06/21 10:24:14;;;;;;;6.63;6.13;;;30.50;51.30;;;;;;5067282;28;20474;-78
2023/06/21 10:26:43;;;;;;;6.60;5.97;;;30.70;50.70;;;;;;5063478;28;20450;-78
2023/06/21 10:29:12;;;;;;;9.30;7.70;;;30.80;50.60;;;;;;5060893;28;20468;-78
2023/06/21 10:31:40;;;;;;;6.93;6.43;;;30.70;50.50;;;;;;5058105;28;20536;-77
2023/06/21 10:34:10;;;;;;;7.30;6.60;;;30.70;50.70;;;;;;5065215;28;20450;-77
2023/06/21 10:36:38;;;;;;;6.63;5.97;;;30.90;50.40;;;;;;5056173;28;20551;-78
2023/06/21 10:39:08;;;;;;;5.83;5.20;;;31.20;50.00;;;;;;5060906;28;20458;-77
2023/06/21 10:41:36;;;;;;;14.10;7.07;;;31.30;49.60;;;;;;5064404;28;20439;-77
2023/06/21 10:44:04;;;;;;;7.57;6.40;;;31.00;48.80;;;;;;5061864;28;20478;-77
2023/06/21 10:46:33;;;;;;;5.90;5.27;;;31.10;50.00;;;;;;5064341;28;20470;-77
2023/06/21 10:49:01;;;;;;;14.50;5.80;;;31.30;49.30;;;;;;5067658;28;20977;-83
2023/06/21 10:51:29;;;;;;;4.73;4.33;;;31.50;48.80;;;;;;5066968;28;20529;-83
2023/06/21 10:53:57;;;;;;;5.20;4.77;;;31.70;49.00;;;;;;5074515;28;20447;-83
2023/06/21 10:56:25;;;;;;;5.03;4.63;;;32.00;48.70;;;;;;5068412;28;20453;-83
2023/06/21 10:58:54;;;;;;;5.23;4.80;;;32.20;48.40;;;;;;5072982;28;20489;-83
2023/06/21 11:01:22;;;;;;;4.40;4.20;;;32.40;48.00;;;;;;5068152;28;20522;-83
2023/06/21 11:03:57;;;;;;;4.47;4.13;;;32.60;47.60;;;;;;5082028;28;20493;-84
2023/06/21 11:06:28;;;;;;;4.33;3.93;;;32.70;47.70;;;;;;5067775;28;20454;-83
2023/06/21 11:09:09;;;;;;;4.60;4.10;;;32.70;47.50;;;;;;5082007;28;20952;-83
2023/06/21 11:12:01;;;;;;;4.33;4.07;;;32.80;47.40;;;;;;5068137;28;20525;-83
2023/06/21 11:14:31;;;;;;;10.83;3.87;;;33.00;47.80;;;;;;5063986;28;20466;-83
2023/06/21 11:17:07;;;;;;;4.57;4.37;;;33.00;47.40;;;;;;5069178;28;20495;-83
2023/06/21 11:19:52;;;;;;;4.17;3.97;;;33.10;47.40;;;;;;5067653;28;20449;-83
2023/06/21 11:22:23;;;;;;;4.37;4.07;;;33.10;47.60;;;;;;5078012;28;20970;-84
2023/06/21 11:24:57;;;;;;;4.63;4.33;;;33.20;47.30;;;;;;5065782;28;20474;-83
2023/06/21 11:27:30;;;;;;;4.13;3.87;;;33.30;47.30;;;;;;5064520;28;20469;-85
2023/06/21 11:30:09;;;;;;;5.40;3.90;;;33.30;47.10;;;;;;5071795;28;20457;-83
2023/06/21 11:32:55;;;;;;;4.10;3.80;;;33.30;47.20;;;;;;5078434;28;20468;-82
2023/06/21 11:35:36;;;;;;;4.57;4.10;;;33.50;46.50;;;;;;5064199;28;20443;-83
2023/06/21 11:38:05;;;;;;;7.00;4.50;;;33.50;46.40;;;;;;5072195;28;20445;-84
2023/06/21 11:40:33;;;;;;;6.53;3.80;;;33.60;46.40;;;;;;5063415;28;20504;-84
2023/06/21 11:43:03;;;;;;;5.97;3.70;;;33.80;45.70;;;;;;5059138;28;20446;-84
2023/06/21 11:45:35;;;;;;;5.83;3.73;;;33.80;45.20;;;;;;5070775;28;20486;-83
2023/06/21 11:48:08;;;;;;;3.50;3.33;;;33.90;44.40;;;;;;5061230;28;20450;-84
2023/06/21 11:50:39;;;;;;;3.73;3.40;;;33.90;44.20;;;;;;5066152;28;20445;-84
2023/06/21 11:53:22;;;;;;;3.50;3.30;;;34.00;44.40;;;;;;5068581;28;20492;-83
2023/06/21 11:55:52;;;;;;;5.00;3.10;;;34.10;44.00;;;;;;5062745;28;20482;-83
2023/06/21 11:58:20;;;;;;;3.30;3.10;;;34.10;43.50;;;;;;5071884;28;20545;-84
2023/06/21 12:00:48;;;;;;;5.50;3.20;;;34.20;43.40;;;;;;5070256;28;20480;-84
2023/06/21 12:03:17;;;;;;;2.97;2.87;;;34.20;43.30;;;;;;5066283;28;20489;-83
2023/06/21 12:05:51;;;;;;;5.80;2.80;;;34.20;42.80;;;;;;5071473;28;20544;-83
2023/06/21 12:08:19;;;;;;;3.00;2.90;;;34.30;43.00;;;;;;5066377;28;20500;-83
2023/06/21 12:10:48;;;;;;;3.40;3.20;;;34.30;42.90;;;;;;5060683;28;20534;-82
2023/06/21 12:13:18;;;;;;;3.87;3.20;;;34.30;43.10;;;;;;5068209;28;20489;-83
2023/06/21 12:15:47;;;;;;;3.23;3.00;;;34.30;43.00;;;;;;5063616;28;20470;-84
2023/06/21 12:18:15;;;;;;;3.20;3.00;;;34.40;42.70;;;;;;5062014;28;20440;-83
2023/06/21 12:20:44;;;;;;;3.17;2.87;;;34.50;42.30;;;;;;5063297;28;20474;-84
2023/06/21 12:23:13;;;;;;;3.00;2.70;;;34.60;42.20;;;;;;5065159;28;20514;-85
2023/06/21 12:25:45;;;;;;;3.30;3.03;;;34.50;41.70;;;;;;5057662;28;20470;-85
2023/06/21 12:28:14;;;;;;;3.00;2.80;;;34.50;41.80;;;;;;5060788;28;20492;-84
2023/06/21 12:30:49;;;;;;;3.63;3.33;;;34.60;41.20;;;;;;5056862;28;20989;-84
2023/06/21 12:33:18;;;;;;;3.93;3.07;;;34.50;41.40;;;;;;5074150;28;20464;-83
2023/06/21 12:35:46;;;;;;;2.90;2.73;;;34.50;40.90;;;;;;5055389;28;20439;-83
2023/06/21 12:38:15;;;;;;;3.17;3.00;;;34.50;40.40;;;;;;5060077;28;20441;-84
2023/06/21 12:40:54;;;;;;;3.10;2.90;;;34.50;40.40;;;;;;5059264;28;20451;-82
2023/06/21 12:43:35;;;;;;;2.53;2.43;;;34.40;40.70;;;;;;5059347;28;20474;-83
2023/06/21 12:46:04;;;;;;;2.73;2.57;;;34.40;40.90;;;;;;5062622;28;20478;-83
2023/06/21 12:48:32;;;;;;;2.37;2.20;;;34.30;41.10;;;;;;5059607;28;20482;-82
2023/06/21 12:51:01;;;;;;;2.83;2.63;;;34.30;40.80;;;;;;5070751;28;20488;-82